sensor_id;sensor_type;location;lat;lon;timestamp;temperature;humidity
15916;DHT22;8057;47.830;-3.870;2022-12-24T00:15:32;12.60;99.90
15916;DHT22;8057;47.830;-3.870;2022-12-24T00:25:16;12.70;99.90
15916;DHT22;8057;47.830;-3.870;2022-12-24T02:48:09;12.70;99.90
15916;DHT22;8057;47.830;-3.870;2022-12-24T04:24:46;12.40;99.90
15916;DHT22;8057;47.830;-3.870;2022-12-24T04:29:15;12.40;99.90
15916;DHT22;8057;47.830;-3.870;2022-12-24T04:33:30;12.30;99.90
15916;DHT22;8057;47.830;-3.870;2022-12-24T04:38:01;12.30;99.90
15916;DHT22;8057;47.830;-3.870;2022-12-24T04:53:09;12.30;99.90
15916;DHT22;8057;47.830;-3.870;2022-12-24T04:57:50;12.30;99.90
15916;DHT22;8057;47.830;-3.870;2022-12-24T05:02:54;12.30;99.90
15916;DHT22;8057;47.830;-3.870;2022-12-24T05:07:20;12.30;99.90
15916;DHT22;8057;47.830;-3.870;2022-12-24T05:12:02;12.30;99.90
15916;DHT22;8057;47.830;-3.870;2022-12-24T05:16:37;12.20;99.90
15916;DHT22;8057;47.830;-3.870;2022-12-24T05:21:06;12.20;99.90
15916;DHT22;8057;47.830;-3.870;2022-12-24T05:25:25;12.40;99.90
15916;DHT22;8057;47.830;-3.870;2022-12-24T05:30:11;12.50;99.90
15916;DHT22;8057;47.830;-3.870;2022-12-24T05:34:48;12.60;99.90
15916;DHT22;8057;47.830;-3.870;2022-12-24T05:39:30;12.60;99.90
15916;DHT22;8057;47.830;-3.870;2022-12-24T05:43:44;12.70;99.90
15916;DHT22;8057;47.830;-3.870;2022-12-24T05:48:37;12.70;99.90
15916;DHT22;8057;47.830;-3.870;2022-12-24T05:54:11;12.60;99.90
15916;DHT22;8057;47.830;-3.870;2022-12-24T05:58:53;12.60;99.90
15916;DHT22;8057;47.830;-3.870;2022-12-24T06:03:14;12.50;99.90
15916;DHT22;8057;47.830;-3.870;2022-12-24T06:07:45;12.40;99.90
15916;DHT22;8057;47.830;-3.870;2022-12-24T06:12:40;12.40;99.90
15916;DHT22;8057;47.830;-3.870;2022-12-24T06:17:02;12.40;99.90
15916;DHT22;8057;47.830;-3.870;2022-12-24T06:21:29;12.40;99.90
15916;DHT22;8057;47.830;-3.870;2022-12-24T06:26:24;12.40;99.90
15916;DHT22;8057;47.830;-3.870;2022-12-24T06:30:35;12.50;99.90
15916;DHT22;8057;47.830;-3.870;2022-12-24T06:34:59;12.40;99.90
15916;DHT22;8057;47.830;-3.870;2022-12-24T06:39:26;12.40;99.90
15916;DHT22;8057;47.830;-3.870;2022-12-24T06:43:47;12.30;99.90
15916;DHT22;8057;47.830;-3.870;2022-12-24T06:48:21;12.30;99.90
15916;DHT22;8057;47.830;-3.870;2022-12-24T06:52:33;12.40;99.90
15916;DHT22;8057;47.830;-3.870;2022-12-24T07:02:13;12.40;99.90
15916;DHT22;8057;47.830;-3.870;2022-12-24T07:06:41;12.40;99.90
15916;DHT22;8057;47.830;-3.870;2022-12-24T07:10:57;12.40;99.90
15916;DHT22;8057;47.830;-3.870;2022-12-24T07:15:38;12.50;99.90
15916;DHT22;8057;47.830;-3.870;2022-12-24T07:20:06;12.50;99.90
15916;DHT22;8057;47.830;-3.870;2022-12-24T07:24:42;12.50;99.90
15916;DHT22;8057;47.830;-3.870;2022-12-24T07:29:30;12.40;99.90
15916;DHT22;8057;47.830;-3.870;2022-12-24T07:33:58;12.20;99.90
15916;DHT22;8057;47.830;-3.870;2022-12-24T07:38:18;12.30;99.90
15916;DHT22;8057;47.830;-3.870;2022-12-24T07:42:39;12.40;99.90
15916;DHT22;8057;47.830;-3.870;2022-12-24T07:46:56;12.40;99.90
15916;DHT22;8057;47.830;-3.870;2022-12-24T07:51:16;12.40;99.90
15916;DHT22;8057;47.830;-3.870;2022-12-24T08:01:23;12.40;99.90
15916;DHT22;8057;47.830;-3.870;2022-12-24T08:10:21;12.00;99.90
15916;DHT22;8057;47.830;-3.870;2022-12-24T08:14:58;11.90;99.90
15916;DHT22;8057;47.830;-3.870;2022-12-24T08:19:28;11.90;99.90
15916;DHT22;8057;47.830;-3.870;2022-12-24T08:28:29;11.80;99.90
15916;DHT22;8057;47.830;-3.870;2022-12-24T08:32:43;11.80;99.90
15916;DHT22;8057;47.830;-3.870;2022-12-24T08:36:56;11.80;99.90
15916;DHT22;8057;47.830;-3.870;2022-12-24T08:41:07;11.80;99.90
15916;DHT22;8057;47.830;-3.870;2022-12-24T08:45:17;11.80;99.90
15916;DHT22;8057;47.830;-3.870;2022-12-24T08:49:32;11.70;99.90
15916;DHT22;8057;47.830;-3.870;2022-12-24T08:53:44;11.70;99.90
15916;DHT22;8057;47.830;-3.870;2022-12-24T08:57:55;11.80;99.90
15916;DHT22;8057;47.830;-3.870;2022-12-24T09:02:07;11.70;99.90
15916;DHT22;8057;47.830;-3.870;2022-12-24T09:06:18;11.70;99.90
15916;DHT22;8057;47.830;-3.870;2022-12-24T09:10:32;11.70;99.90
15916;DHT22;8057;47.830;-3.870;2022-12-24T09:14:45;11.70;99.90
15916;DHT22;8057;47.830;-3.870;2022-12-24T09:18:56;11.70;99.90
15916;DHT22;8057;47.830;-3.870;2022-12-24T09:23:08;11.70;99.90
15916;DHT22;8057;47.830;-3.870;2022-12-24T09:27:21;11.50;99.90
15916;DHT22;8057;47.830;-3.870;2022-12-24T09:31:42;11.50;99.90
15916;DHT22;8057;47.830;-3.870;2022-12-24T09:35:53;11.50;99.90
15916;DHT22;8057;47.830;-3.870;2022-12-24T09:40:05;11.60;99.90
15916;DHT22;8057;47.830;-3.870;2022-12-24T09:44:35;11.60;99.90
15916;DHT22;8057;47.830;-3.870;2022-12-24T09:49:07;11.60;99.90
15916;DHT22;8057;47.830;-3.870;2022-12-24T09:53:40;11.60;99.90
15916;DHT22;8057;47.830;-3.870;2022-12-24T09:57:56;11.60;99.90
15916;DHT22;8057;47.830;-3.870;2022-12-24T10:02:26;11.70;99.90
15916;DHT22;8057;47.830;-3.870;2022-12-24T10:07:24;11.60;99.90
15916;DHT22;8057;47.830;-3.870;2022-12-24T10:11:51;11.70;99.90
15916;DHT22;8057;47.830;-3.870;2022-12-24T10:16:47;11.80;99.90
15916;DHT22;8057;47.830;-3.870;2022-12-24T10:21:08;11.60;99.90
15916;DHT22;8057;47.830;-3.870;2022-12-24T10:25:21;11.60;99.90
15916;DHT22;8057;47.830;-3.870;2022-12-24T10:29:44;11.60;99.90
15916;DHT22;8057;47.830;-3.870;2022-12-24T10:34:19;11.70;99.90
15916;DHT22;8057;47.830;-3.870;2022-12-24T10:38:39;11.80;99.90
15916;DHT22;8057;47.830;-3.870;2022-12-24T10:47:40;11.90;99.90
15916;DHT22;8057;47.830;-3.870;2022-12-24T10:52:03;11.90;99.90
15916;DHT22;8057;47.830;-3.870;2022-12-24T10:56:15;12.00;99.90
15916;DHT22;8057;47.830;-3.870;2022-12-24T11:00:26;12.00;99.90
15916;DHT22;8057;47.830;-3.870;2022-12-24T11:04:54;12.10;99.90
15916;DHT22;8057;47.830;-3.870;2022-12-24T11:09:19;12.10;99.90
15916;DHT22;8057;47.830;-3.870;2022-12-24T11:13:33;12.10;99.90
15916;DHT22;8057;47.830;-3.870;2022-12-24T11:17:52;12.10;99.90
15916;DHT22;8057;47.830;-3.870;2022-12-24T11:22:04;12.10;99.90
15916;DHT22;8057;47.830;-3.870;2022-12-24T11:26:44;12.10;99.90
15916;DHT22;8057;47.830;-3.870;2022-12-24T11:31:03;12.20;99.90
15916;DHT22;8057;47.830;-3.870;2022-12-24T11:35:16;12.20;99.90
15916;DHT22;8057;47.830;-3.870;2022-12-24T11:39:30;12.20;99.90
15916;DHT22;8057;47.830;-3.870;2022-12-24T11:43:49;12.20;99.90
15916;DHT22;8057;47.830;-3.870;2022-12-24T11:48:00;12.20;99.90
15916;DHT22;8057;47.830;-3.870;2022-12-24T11:52:34;12.20;99.90
15916;DHT22;8057;47.830;-3.870;2022-12-24T11:57:06;12.20;99.90
15916;DHT22;8057;47.830;-3.870;2022-12-24T12:02:01;12.20;99.90
15916;DHT22;8057;47.830;-3.870;2022-12-24T12:06:32;12.20;99.90
15916;DHT22;8057;47.830;-3.870;2022-12-24T12:11:26;12.30;99.90
15916;DHT22;8057;47.830;-3.870;2022-12-24T12:16:16;12.30;99.90
15916;DHT22;8057;47.830;-3.870;2022-12-24T12:21:02;12.40;99.90
15916;DHT22;8057;47.830;-3.870;2022-12-24T12:25:50;12.40;99.90
15916;DHT22;8057;47.830;-3.870;2022-12-24T12:30:27;12.30;99.90
15916;DHT22;8057;47.830;-3.870;2022-12-24T12:35:04;12.40;99.90
15916;DHT22;8057;47.830;-3.870;2022-12-24T12:39:17;12.40;99.90
15916;DHT22;8057;47.830;-3.870;2022-12-24T12:53:18;12.50;99.90
15916;DHT22;8057;47.830;-3.870;2022-12-24T12:57:39;12.50;99.90
15916;DHT22;8057;47.830;-3.870;2022-12-24T13:01:58;12.50;99.90
15916;DHT22;8057;47.830;-3.870;2022-12-24T13:10:56;12.40;99.90
15916;DHT22;8057;47.830;-3.870;2022-12-24T13:15:26;12.40;99.90
15916;DHT22;8057;47.830;-3.870;2022-12-24T13:19:50;12.30;99.90
15916;DHT22;8057;47.830;-3.870;2022-12-24T13:24:11;12.40;99.90
15916;DHT22;8057;47.830;-3.870;2022-12-24T13:28:32;12.50;99.90
15916;DHT22;8057;47.830;-3.870;2022-12-24T13:32:49;12.50;99.90
15916;DHT22;8057;47.830;-3.870;2022-12-24T13:37:17;12.50;99.90
15916;DHT22;8057;47.830;-3.870;2022-12-24T13:41:49;12.50;99.90
15916;DHT22;8057;47.830;-3.870;2022-12-24T13:45:58;12.50;99.90
15916;DHT22;8057;47.830;-3.870;2022-12-24T13:50:22;12.50;99.90
15916;DHT22;8057;47.830;-3.870;2022-12-24T13:54:33;12.60;99.90
15916;DHT22;8057;47.830;-3.870;2022-12-24T13:58:48;12.60;99.90
15916;DHT22;8057;47.830;-3.870;2022-12-24T14:03:02;12.70;99.90
15916;DHT22;8057;47.830;-3.870;2022-12-24T14:07:18;12.60;99.90
15916;DHT22;8057;47.830;-3.870;2022-12-24T14:11:28;12.70;99.90
15916;DHT22;8057;47.830;-3.870;2022-12-24T14:16:06;12.70;99.90
15916;DHT22;8057;47.830;-3.870;2022-12-24T14:24:34;12.60;99.90
15916;DHT22;8057;47.830;-3.870;2022-12-24T14:28:47;12.60;99.90
15916;DHT22;8057;47.830;-3.870;2022-12-24T14:32:59;12.60;99.90
15916;DHT22;8057;47.830;-3.870;2022-12-24T14:37:13;12.60;99.90
15916;DHT22;8057;47.830;-3.870;2022-12-24T14:41:39;12.50;99.90
15916;DHT22;8057;47.830;-3.870;2022-12-24T14:45:58;12.60;99.90
15916;DHT22;8057;47.830;-3.870;2022-12-24T16:10:49;12.40;99.90
15916;DHT22;8057;47.830;-3.870;2022-12-24T17:18:19;12.10;99.90
15916;DHT22;8057;47.830;-3.870;2022-12-24T17:22:29;12.10;99.90
15916;DHT22;8057;47.830;-3.870;2022-12-24T17:27:03;12.10;99.90
15916;DHT22;8057;47.830;-3.870;2022-12-24T17:31:18;12.20;99.90
15916;DHT22;8057;47.830;-3.870;2022-12-24T17:40:45;12.30;99.90
15916;DHT22;8057;47.830;-3.870;2022-12-24T18:09:46;12.50;99.90
